Terminal Aerodrome Forecast
Issued by NWS

Home | Current Version | Previous Version | Text Only | Print | Product List | Glossary On
Versions: 1 2 3 4 5 6 7 8 9 10 11 12 13 14 15 16 17 18 19 20 21 22 23 24 25 26 27 28
000
FTUS42 KFFC 240520
TAFRYY
TAF
KRYY 240520Z 2406/2506 32012G22KT P6SM OVC020
     FM241400 31012KT P6SM SCT020
     FM241800 31008KT P6SM SKC
     FM250000 29003KT P6SM SKC
      AMD NOT SKED TIL 241200=

USA.gov is the U.S. government's official web portal to all federal, state and local government web resources and services.